Camden, Delaware
Current Conditions -  °F | °C
As of 3:58 AM on Monday 24 Nov 2014 (Local Time) from KDOV Reporting Station
Overcast Overcast  
Wind Chill: 64°   Ceiling: 1200
Heat Index: 64°   Visibility: 10mi
Dew Point: 64°   Wind: 26mph
Humidity: 100%   Direction: 160°SSE
Pressure: 29.69"   Gusts: 36mph
Location:  39.0852°N, 75.6325°W
Report Text: KDOV 240858Z AUTO 16023G31KT 10SM OVC012 18/18 A2969 RMK AO2 PK WND 16035/28 RAE0819 SLP057 P0001 60016 T01770177 56040
Loading
Personal Weather Stations






























Interactive Weather Map New forecast layout! Learn more

10-Day Weather Forecast

Advertisements
Track Severe Weather on mobile